createdAt,value
2019-03-01T00:01:35.557Z,95987.90
2019-03-01T00:04:03.125Z,95990.28
2019-03-01T00:06:30.502Z,95987.16
2019-03-01T00:08:57.795Z,95995.42
2019-03-01T00:11:25.173Z,95991.95
2019-03-01T00:13:52.201Z,95985.91
2019-03-01T00:16:19.252Z,95992.59
2019-03-01T00:18:46.621Z,95987.62
2019-03-01T00:21:13.976Z,95991.70
2019-03-01T00:23:41.008Z,95992.03
2019-03-01T00:26:08.061Z,95989.58
2019-03-01T00:28:35.428Z,95986.47
2019-03-01T00:31:02.739Z,95987.56
2019-03-01T00:33:29.774Z,95986.56
2019-03-01T00:35:57.083Z,95981.48
2019-03-01T00:38:24.441Z,95984.88
2019-03-01T00:40:51.801Z,95991.89
2019-03-01T00:43:19.147Z,95990.41
2019-03-01T00:45:46.525Z,95970.31
2019-03-01T00:48:13.860Z,95974.95
2019-03-01T00:50:41.429Z,95966.00
2019-03-01T00:53:08.775Z,95956.39
2019-03-01T00:55:35.804Z,95953.77
2019-03-01T00:58:03.200Z,95947.56
2019-03-01T01:00:30.233Z,95943.97
2019-03-01T01:02:57.523Z,95948.41
2019-03-01T01:05:24.834Z,95941.77
2019-03-01T01:07:51.889Z,95943.36
2019-03-01T01:10:19.235Z,95930.06
2019-03-01T01:12:46.551Z,95927.34
2019-03-01T01:15:13.588Z,95915.64
2019-03-01T01:17:41.008Z,95916.63
2019-03-01T01:20:08.350Z,95913.22
2019-03-01T01:22:35.708Z,95908.98
2019-03-01T01:25:03.063Z,95909.14
2019-03-01T01:27:30.118Z,95900.06
2019-03-01T01:29:57.155Z,95891.78
2019-03-01T01:32:24.205Z,95893.73
2019-03-01T01:34:51.560Z,95890.83
2019-03-01T01:37:18.610Z,95885.15
2019-03-01T01:39:59.069Z,95888.72
2019-03-01T01:42:26.425Z,95881.70
2019-03-01T01:44:54.428Z,95877.77
2019-03-01T01:47:21.750Z,95874.53
2019-03-01T01:49:49.020Z,95871.44
2019-03-01T01:52:17.037Z,95878.13
2019-03-01T01:54:44.328Z,95873.90
2019-03-01T01:57:11.679Z,95874.86
2019-03-01T01:59:38.718Z,95872.91
2019-03-01T02:02:06.101Z,95866.91
2019-03-01T02:04:33.380Z,95873.21
2019-03-01T02:07:00.692Z,95859.88
2019-03-01T02:09:27.725Z,95856.98
2019-03-01T02:11:54.774Z,95854.55
2019-03-01T02:14:21.810Z,95850.45
2019-03-01T02:16:49.213Z,95843.83
2019-03-01T02:19:16.253Z,95844.44
2019-03-01T02:21:43.289Z,95834.73
2019-03-01T02:24:10.639Z,95836.51
2019-03-01T02:26:38.019Z,95829.38
2019-03-01T02:29:05.072Z,95823.52
2019-03-01T02:31:32.109Z,95816.05
2019-03-01T02:33:59.473Z,95813.93
2019-03-01T02:36:26.801Z,95811.17
2019-03-01T02:38:53.858Z,95819.61
2019-03-01T02:41:20.886Z,95814.25
2019-03-01T02:43:48.170Z,95810.20
2019-03-01T02:46:15.465Z,95815.06
2019-03-01T02:48:42.506Z,95809.70
2019-03-01T02:51:09.550Z,95807.59
2019-03-01T02:53:36.967Z,95803.05
2019-03-01T02:56:04.005Z,95802.41
2019-03-01T02:58:31.858Z,95795.91
2019-03-01T03:00:59.157Z,95798.06
2019-03-01T03:03:26.490Z,95797.05
2019-03-01T03:05:53.529Z,95799.00
2019-03-01T03:08:20.888Z,95797.19
2019-03-01T03:10:48.195Z,95790.84
2019-03-01T03:13:16.429Z,95785.34
2019-03-01T03:15:43.709Z,95784.69
2019-03-01T03:18:10.769Z,95780.30
2019-03-01T03:20:37.797Z,95775.27
2019-03-01T03:23:05.104Z,95774.92
2019-03-01T03:25:32.134Z,95776.72
2019-03-01T03:27:59.426Z,95769.91
2019-03-01T03:30:26.472Z,95767.31
2019-03-01T03:32:53.776Z,95763.25
2019-03-01T03:35:21.076Z,95768.44
2019-03-01T03:37:48.385Z,95772.84
2019-03-01T03:40:15.661Z,95768.92
2019-03-01T03:42:42.681Z,95766.16
2019-03-01T03:45:09.740Z,95759.84
2019-03-01T03:47:37.238Z,95762.42
2019-03-01T03:50:04.307Z,95766.17
2019-03-01T03:52:31.336Z,95760.81
2019-03-01T03:54:59.589Z,95755.94
2019-03-01T03:57:26.625Z,95746.98
2019-03-01T03:59:53.920Z,95748.92
2019-03-01T04:02:20.969Z,95753.81
2019-03-01T04:04:48.266Z,95756.55
2019-03-01T04:07:15.543Z,95747.77
2019-03-01T04:09:42.843Z,95749.58
2019-03-01T04:12:10.122Z,95745.05
2019-03-01T04:14:38.387Z,95734.80
2019-03-01T04:17:05.671Z,95733.00
2019-03-01T04:19:32.733Z,95726.67
2019-03-01T04:22:00.042Z,95732.03
2019-03-01T04:24:27.345Z,95731.05
2019-03-01T04:26:55.592Z,95727.45
2019-03-01T04:29:23.091Z,95727.30
2019-03-01T04:31:50.127Z,95720.15
2019-03-01T04:34:17.171Z,95721.16
2019-03-01T04:36:44.469Z,95713.20
2019-03-01T04:39:11.753Z,95716.13
2019-03-01T04:41:39.076Z,95719.67
2019-03-01T04:44:06.357Z,95708.14
2019-03-01T04:46:33.663Z,95718.70
2019-03-01T04:49:00.710Z,95714.15
2019-03-01T04:51:28.061Z,95710.89
2019-03-01T04:53:55.414Z,95711.05
2019-03-01T04:56:22.602Z,95707.16
2019-03-01T04:58:49.943Z,95710.27
2019-03-01T05:01:17.248Z,95703.91
2019-03-01T05:03:44.651Z,95698.70
2019-03-01T05:06:11.709Z,95706.83
2019-03-01T05:08:39.033Z,95696.75
2019-03-01T05:11:06.080Z,95693.17
2019-03-01T05:13:33.126Z,95687.66
2019-03-01T05:16:00.182Z,95684.73
2019-03-01T05:18:27.532Z,95681.63
2019-03-01T05:20:54.886Z,95692.71
2019-03-01T05:23:22.084Z,95682.96
2019-03-01T05:25:49.338Z,95676.95
2019-03-01T05:28:16.848Z,95675.16
2019-03-01T05:30:43.901Z,95676.94
2019-03-01T05:33:11.269Z,95681.63
2019-03-01T05:35:38.610Z,95692.52
2019-03-01T05:38:05.916Z,95679.02
2019-03-01T05:40:32.970Z,95675.25
2019-03-01T05:43:00.002Z,95682.05
2019-03-01T05:45:27.335Z,95681.06
2019-03-01T05:47:54.666Z,95678.42
2019-03-01T05:50:21.703Z,95683.48
2019-03-01T05:52:53.989Z,95695.49
2019-03-01T05:55:21.363Z,95692.86
2019-03-01T05:57:48.409Z,95683.90
2019-03-01T06:00:15.445Z,95675.30
2019-03-01T06:02:42.563Z,95673.00
2019-03-01T06:05:09.943Z,95666.34
2019-03-01T06:07:37.002Z,95678.70
2019-03-01T06:10:04.343Z,95685.05
2019-03-01T06:12:31.399Z,95679.67
2019-03-01T06:14:58.447Z,95686.36
2019-03-01T06:17:25.759Z,95689.09
2019-03-01T06:19:53.878Z,95692.34
2019-03-01T06:22:21.223Z,95698.55
2019-03-01T06:24:48.256Z,95695.43
2019-03-01T06:27:16.416Z,95704.47
2019-03-01T06:29:43.627Z,95704.27
2019-03-01T06:32:10.950Z,95697.27
2019-03-01T06:34:38.260Z,95699.61
2019-03-01T06:37:05.304Z,95699.63
2019-03-01T06:39:32.705Z,95700.12
2019-03-01T06:42:00.093Z,95699.28
2019-03-01T06:44:27.365Z,95696.30
2019-03-01T06:46:54.415Z,95701.48
2019-03-01T06:49:21.738Z,95693.22
2019-03-01T06:51:48.789Z,95693.83
2019-03-01T06:54:15.841Z,95688.48
2019-03-01T06:56:43.194Z,95690.12
2019-03-01T06:59:10.302Z,95687.31
2019-03-01T07:01:37.672Z,95689.97
2019-03-01T07:04:04.782Z,95690.95
2019-03-01T07:06:32.178Z,95693.50
2019-03-01T07:08:59.483Z,95694.70
2019-03-01T07:11:26.798Z,95692.41
2019-03-01T07:13:53.917Z,95699.70
2019-03-01T07:16:20.953Z,95692.41
2019-03-01T07:18:48.001Z,95703.78
2019-03-01T07:21:15.388Z,95691.29
2019-03-01T07:23:42.744Z,95695.20
2019-03-01T07:26:09.773Z,95694.92
2019-03-01T07:28:37.144Z,95687.40
2019-03-01T07:31:04.196Z,95694.66
2019-03-01T07:33:31.240Z,95685.95
2019-03-01T07:35:58.601Z,95686.10
2019-03-01T07:38:25.648Z,95690.19
2019-03-01T07:40:53.019Z,95694.23
2019-03-01T07:43:20.377Z,95703.00
2019-03-01T07:45:47.713Z,95700.45
2019-03-01T07:48:15.068Z,95703.61
2019-03-01T07:50:42.427Z,95693.91
2019-03-01T07:53:09.796Z,95700.12
2019-03-01T07:55:37.132Z,95697.94
2019-03-01T07:58:04.490Z,95699.54
2019-03-01T08:00:31.863Z,95694.66
2019-03-01T08:02:59.192Z,95697.13
2019-03-01T08:05:26.558Z,95685.64
2019-03-01T08:07:56.334Z,95687.16
2019-03-01T08:10:23.357Z,95690.56
2019-03-01T08:12:51.589Z,95688.50
2019-03-01T08:15:18.954Z,95682.83
2019-03-01T08:17:46.000Z,95692.00
2019-03-01T08:20:13.058Z,95684.03
2019-03-01T08:22:48.134Z,95681.59
2019-03-01T08:25:09.213Z,95682.18
2019-03-01T08:27:36.540Z,95686.89
2019-03-01T08:30:06.919Z,95695.70
2019-03-01T08:32:33.821Z,95689.68
2019-03-01T08:35:00.875Z,95687.62
2019-03-01T08:37:27.910Z,95686.50
2019-03-01T08:39:56.282Z,95683.43
2019-03-01T08:42:23.402Z,95678.59
2019-03-01T08:44:50.788Z,95681.69
2019-03-01T08:47:23.272Z,95682.34
2019-03-01T08:49:46.935Z,95683.64
2019-03-01T08:52:13.976Z,95687.04
2019-03-01T08:54:41.440Z,95693.64
2019-03-01T08:57:08.792Z,95699.33
2019-03-01T08:59:36.174Z,95687.95
2019-03-01T09:02:03.209Z,95689.86
2019-03-01T09:04:30.285Z,95692.48
2019-03-01T09:06:57.613Z,95694.13
2019-03-01T09:09:25.101Z,95693.21
2019-03-01T09:11:52.548Z,95701.36
2019-03-01T09:14:22.667Z,95683.34
2019-03-01T09:16:48.576Z,95683.99
2019-03-01T09:19:15.911Z,95684.31
2019-03-01T09:21:44.741Z,95684.64
2019-03-01T09:24:13.074Z,95682.53
2019-03-01T09:26:40.118Z,95673.05
2019-03-01T09:29:07.170Z,95678.45
2019-03-01T09:31:34.468Z,95673.03
2019-03-01T09:34:01.776Z,95675.34
2019-03-01T09:36:29.152Z,95677.49
2019-03-01T09:38:56.513Z,95674.91
2019-03-01T09:41:23.553Z,95673.26
2019-03-01T09:43:50.908Z,95684.70
2019-03-01T09:46:20.844Z,95677.04
2019-03-01T09:48:49.378Z,95676.41
2019-03-01T09:51:16.105Z,95682.93
2019-03-01T09:53:43.486Z,95677.43
2019-03-01T09:56:12.894Z,95689.04
2019-03-01T09:58:39.956Z,95678.47
2019-03-01T10:01:07.315Z,95683.18
2019-03-01T10:03:34.353Z,95684.48
2019-03-01T10:06:01.720Z,95683.86
2019-03-01T10:08:28.773Z,95687.10
2019-03-01T10:10:56.104Z,95694.55
2019-03-01T10:13:23.462Z,95683.34
2019-03-01T10:15:50.511Z,95687.55
2019-03-01T10:18:17.872Z,95697.11
2019-03-01T10:20:44.927Z,95676.14
2019-03-01T10:23:12.261Z,95687.20
2019-03-01T10:25:39.578Z,95687.56
2019-03-01T10:28:07.097Z,95693.43
2019-03-01T10:30:34.449Z,95689.05
2019-03-01T10:33:01.808Z,95694.89
2019-03-01T10:35:28.865Z,95700.28
2019-03-01T10:37:56.194Z,95699.28
2019-03-01T10:40:23.511Z,95696.35
2019-03-01T10:42:50.548Z,95705.62
2019-03-01T10:45:17.612Z,95698.16
2019-03-01T10:47:44.644Z,95704.01
2019-03-01T10:50:11.994Z,95705.64
2019-03-01T10:52:39.401Z,95702.82
2019-03-01T10:55:06.718Z,95701.03
2019-03-01T10:57:34.092Z,95703.00
2019-03-01T11:00:01.403Z,95704.47
2019-03-01T11:02:29.071Z,95702.84
2019-03-01T11:04:56.362Z,95706.56
2019-03-01T11:07:23.431Z,95710.11
2019-03-01T11:09:50.471Z,95711.23
2019-03-01T11:12:17.520Z,95713.19
2019-03-01T11:14:44.875Z,95711.87
2019-03-01T11:17:12.180Z,95709.59
2019-03-01T11:19:39.504Z,95715.28
2019-03-01T11:22:07.961Z,95724.00
2019-03-01T11:24:35.000Z,95718.14
2019-03-01T11:27:02.365Z,95721.43
2019-03-01T11:29:29.396Z,95723.41
2019-03-01T11:31:56.772Z,95718.69
2019-03-01T11:34:24.126Z,95726.33
2019-03-01T11:36:51.483Z,95734.96
2019-03-01T11:39:18.833Z,95729.05
2019-03-01T11:41:45.888Z,95728.43
2019-03-01T11:44:13.236Z,95731.52
2019-03-01T11:46:40.292Z,95736.10
2019-03-01T11:49:07.330Z,95735.94
2019-03-01T11:51:34.392Z,95736.76
2019-03-01T11:54:01.741Z,95738.73
2019-03-01T11:56:29.094Z,95741.03
2019-03-01T11:58:56.139Z,95742.20
2019-03-01T12:01:23.514Z,95743.21
2019-03-01T12:03:50.560Z,95737.83
2019-03-01T12:06:17.612Z,95741.89
2019-03-01T12:08:44.953Z,95740.59
2019-03-01T12:11:12.304Z,95741.09
2019-03-01T12:13:39.614Z,95738.30
2019-03-01T12:16:07.010Z,95739.89
2019-03-01T12:18:34.041Z,95742.48
2019-03-01T12:21:01.104Z,95743.13
2019-03-01T12:23:28.485Z,95744.44
2019-03-01T12:25:55.821Z,95740.05
2019-03-01T12:28:22.937Z,95750.81
2019-03-01T12:30:49.975Z,95749.83
2019-03-01T12:33:17.382Z,95750.02
2019-03-01T12:35:44.421Z,95747.09
2019-03-01T12:38:11.472Z,95750.21
2019-03-01T12:40:38.512Z,95741.09
2019-03-01T12:43:05.892Z,95748.23
2019-03-01T12:45:33.243Z,95742.88
2019-03-01T12:48:00.576Z,95750.51
2019-03-01T12:50:27.933Z,95754.41
2019-03-01T12:52:54.985Z,95751.33
2019-03-01T12:55:22.027Z,95744.81
2019-03-01T12:57:49.384Z,95744.98
2019-03-01T13:00:16.670Z,95756.70
2019-03-01T13:02:43.721Z,95757.33
2019-03-01T13:05:11.040Z,95754.09
2019-03-01T13:07:39.542Z,95757.35
2019-03-01T13:10:07.058Z,95755.54
2019-03-01T13:12:35.481Z,95748.23
2019-03-01T13:15:02.527Z,95751.01
2019-03-01T13:17:33.722Z,95754.27
2019-03-01T13:20:01.136Z,95757.67
2019-03-01T13:22:28.666Z,95756.52
2019-03-01T13:24:56.152Z,95762.23
2019-03-01T13:27:24.284Z,95756.21
2019-03-01T13:29:51.676Z,95754.72
2019-03-01T13:32:19.982Z,95759.75
2019-03-01T13:34:49.466Z,95754.25
2019-03-01T13:37:20.158Z,95759.30
2019-03-01T13:39:48.670Z,95768.23
2019-03-01T13:42:14.787Z,95757.19
2019-03-01T13:44:41.828Z,95759.44
2019-03-01T13:47:09.456Z,95764.16
2019-03-01T13:49:36.528Z,95754.25
2019-03-01T13:52:03.827Z,95764.98
2019-03-01T13:54:30.871Z,95765.79
2019-03-01T13:56:57.915Z,95765.15
2019-03-01T13:59:25.268Z,95765.30
2019-03-01T14:01:52.307Z,95769.02
2019-03-01T14:04:19.667Z,95769.01
2019-03-01T14:06:47.003Z,95763.34
2019-03-01T14:09:14.381Z,95772.12
2019-03-01T14:11:42.568Z,95770.84
2019-03-01T14:14:09.634Z,95773.59
2019-03-01T14:16:36.675Z,95775.91
2019-03-01T14:19:03.990Z,95778.52
2019-03-01T14:21:33.070Z,95781.91
2019-03-01T14:24:00.437Z,95779.80
2019-03-01T14:26:27.479Z,95790.70
2019-03-01T14:28:54.537Z,95790.55
2019-03-01T14:31:21.889Z,95789.75
2019-03-01T14:33:48.951Z,95792.02
2019-03-01T14:36:16.002Z,95792.03
2019-03-01T14:38:43.354Z,95793.66
2019-03-01T14:41:10.638Z,95795.29
2019-03-01T14:43:37.699Z,95795.13
2019-03-01T14:46:04.978Z,95803.90
2019-03-01T14:48:32.045Z,95804.72
2019-03-01T14:50:59.397Z,95809.12
2019-03-01T14:53:26.457Z,95811.72
2019-03-01T14:55:55.687Z,95808.28
2019-03-01T14:58:23.496Z,95805.52
2019-03-01T15:00:51.223Z,95806.33
2019-03-01T15:03:18.753Z,95812.05
2019-03-01T15:05:46.069Z,95820.02
2019-03-01T15:08:13.445Z,95814.16
2019-03-01T15:10:40.490Z,95814.80
2019-03-01T15:13:07.528Z,95816.59
2019-03-01T15:15:34.893Z,95815.61
2019-03-01T15:18:01.930Z,95820.50
2019-03-01T15:20:28.987Z,95819.66
2019-03-01T15:22:56.293Z,95821.92
2019-03-01T15:25:23.720Z,95814.61
2019-03-01T15:27:50.770Z,95818.22
2019-03-01T15:30:17.902Z,95819.69
2019-03-01T15:32:44.949Z,95822.30
2019-03-01T15:35:12.301Z,95830.60
2019-03-01T15:37:39.413Z,95826.53
2019-03-01T15:40:07.368Z,95832.05
2019-03-01T15:42:34.980Z,95832.22
2019-03-01T15:45:05.084Z,95836.12
2019-03-01T15:47:31.538Z,95844.76
2019-03-01T15:49:58.890Z,95841.66
2019-03-01T15:52:25.933Z,95841.98
2019-03-01T15:54:53.307Z,95847.03
2019-03-01T15:57:20.350Z,95845.26
2019-03-01T15:59:48.896Z,95849.63
2019-03-01T16:02:16.028Z,95853.19
2019-03-01T16:04:43.277Z,95849.45
2019-03-01T16:07:14.534Z,95856.89
2019-03-01T16:09:40.672Z,95857.86
2019-03-01T16:12:08.925Z,95867.02
2019-03-01T16:14:36.256Z,95870.59
2019-03-01T16:17:04.431Z,95869.25
2019-03-01T16:19:33.002Z,95874.74
2019-03-01T16:22:00.630Z,95872.95
2019-03-01T16:24:28.856Z,95871.33
2019-03-01T16:26:57.043Z,95868.72
2019-03-01T16:29:25.587Z,95873.59
2019-03-01T16:31:53.161Z,95876.84
2019-03-01T16:34:21.752Z,95884.11
2019-03-01T16:36:49.948Z,95885.34
2019-03-01T16:39:17.192Z,95879.52
2019-03-01T16:41:45.385Z,95880.80
2019-03-01T16:44:13.646Z,95881.77
2019-03-01T16:46:41.272Z,95884.69
2019-03-01T16:49:08.928Z,95890.81
2019-03-01T16:51:36.133Z,95895.53
2019-03-01T16:54:04.389Z,95904.60
2019-03-01T16:56:34.678Z,95903.77
2019-03-01T16:59:03.749Z,95912.84
2019-03-01T17:01:31.184Z,95912.17
2019-03-01T17:03:58.419Z,95905.50
2019-03-01T17:06:26.047Z,95914.90
2019-03-01T17:08:53.327Z,95914.36
2019-03-01T17:11:20.501Z,95915.14
2019-03-01T17:13:48.750Z,95919.31
2019-03-01T17:16:20.393Z,95924.98
2019-03-01T17:18:47.836Z,95932.35
2019-03-01T17:21:16.879Z,95933.68
2019-03-01T17:23:44.924Z,95936.16
2019-03-01T17:26:12.108Z,95941.36
2019-03-01T17:28:40.366Z,95947.70
2019-03-01T17:31:09.585Z,95944.41
2019-03-01T17:33:37.741Z,95943.47
2019-03-01T17:36:05.367Z,95949.86
2019-03-01T17:38:33.059Z,95950.45
2019-03-01T17:41:01.255Z,95953.05
2019-03-01T17:43:29.710Z,95956.05
2019-03-01T17:45:59.115Z,95951.79
2019-03-01T17:48:26.393Z,95952.47
2019-03-01T17:51:04.630Z,95956.21
2019-03-01T17:53:32.106Z,95959.66
2019-03-01T17:55:59.797Z,95971.05
2019-03-01T17:58:29.419Z,95969.20
2019-03-01T18:00:58.779Z,95963.08
2019-03-01T18:03:28.541Z,95966.56
2019-03-01T18:05:55.969Z,95972.76
2019-03-01T18:08:24.466Z,95972.09
2019-03-01T18:10:51.746Z,95972.58
2019-03-01T18:13:20.015Z,95974.36
2019-03-01T18:15:49.603Z,95982.00
2019-03-01T18:18:17.026Z,95984.00
2019-03-01T18:20:44.206Z,95985.34
2019-03-01T18:23:11.757Z,95981.25
2019-03-01T18:25:39.510Z,95986.27
2019-03-01T18:28:06.962Z,95992.87
2019-03-01T18:30:34.140Z,95992.06
2019-03-01T18:33:01.413Z,96001.83
2019-03-01T18:35:32.902Z,95997.48
2019-03-01T18:38:01.139Z,96002.94
2019-03-01T18:40:29.573Z,96002.97
2019-03-01T18:42:56.768Z,96008.98
2019-03-01T18:45:25.207Z,96012.73
2019-03-01T18:47:52.765Z,96017.27
2019-03-01T18:50:19.947Z,96018.56
2019-03-01T18:52:49.713Z,96017.00
2019-03-01T18:55:18.533Z,96018.83
2019-03-01T18:57:46.342Z,96021.86
2019-03-01T19:00:13.560Z,96025.02
2019-03-01T19:02:42.739Z,96030.85
2019-03-01T19:05:09.910Z,96041.50
2019-03-01T19:07:37.457Z,96037.08
2019-03-01T19:10:06.626Z,96043.23
2019-03-01T19:12:34.648Z,96051.66
2019-03-01T19:15:02.277Z,96057.34
2019-03-01T19:17:31.911Z,96055.08
2019-03-01T19:20:01.976Z,96061.61
2019-03-01T19:22:30.715Z,96068.92
2019-03-01T19:24:58.914Z,96071.75
2019-03-01T19:27:26.147Z,96065.36
2019-03-01T19:29:54.343Z,96075.75
2019-03-01T19:32:23.624Z,96066.13
2019-03-01T19:34:53.618Z,96071.62
2019-03-01T19:37:21.495Z,96065.46
2019-03-01T19:39:51.106Z,96070.99
2019-03-01T19:42:18.264Z,96077.81
2019-03-01T19:44:46.818Z,96083.64
2019-03-01T19:47:14.503Z,96081.42
2019-03-01T19:49:45.176Z,96080.32
2019-03-01T19:52:12.924Z,96084.41
2019-03-01T19:54:40.182Z,96084.84
2019-03-01T19:57:08.315Z,96086.38
2019-03-01T19:59:35.505Z,96091.58
2019-03-01T20:02:02.727Z,96094.42
2019-03-01T20:04:30.367Z,96092.11
2019-03-01T20:06:57.546Z,96098.61
2019-03-01T20:09:24.873Z,96095.81
2019-03-01T20:11:52.643Z,96101.49
2019-03-01T20:14:19.839Z,96094.98
2019-03-01T20:16:47.069Z,96100.28
2019-03-01T20:19:16.987Z,96096.96
2019-03-01T20:21:44.166Z,96102.39
2019-03-01T20:24:12.500Z,96102.53
2019-03-01T20:26:41.711Z,96111.14
2019-03-01T20:29:09.239Z,96115.38
2019-03-01T20:31:40.525Z,96115.33
2019-03-01T20:34:05.949Z,96118.06
2019-03-01T20:36:34.485Z,96122.16
2019-03-01T20:39:01.683Z,96129.84
2019-03-01T20:41:31.752Z,96139.45
2019-03-01T20:44:01.000Z,96133.16
2019-03-01T20:46:27.927Z,96135.77
2019-03-01T20:48:56.478Z,96137.20
2019-03-01T20:51:26.858Z,96144.66
2019-03-01T20:53:52.843Z,96139.17
2019-03-01T20:56:20.116Z,96138.89
2019-03-01T20:58:47.489Z,96137.45
2019-03-01T21:01:16.022Z,96144.37
2019-03-01T21:03:44.711Z,96141.30
2019-03-01T21:06:13.191Z,96142.34
2019-03-01T21:08:40.365Z,96150.52
2019-03-01T21:11:10.193Z,96143.16
2019-03-01T21:13:39.863Z,96142.20
2019-03-01T21:16:07.419Z,96135.80
2019-03-01T21:18:35.089Z,96147.53
2019-03-01T21:21:02.282Z,96149.37
2019-03-01T21:23:29.511Z,96152.19
2019-03-01T21:25:58.727Z,96140.45
2019-03-01T21:28:26.607Z,96150.02
2019-03-01T21:30:59.045Z,96150.07
2019-03-01T21:33:28.302Z,96146.12
2019-03-01T21:35:57.960Z,96140.98
2019-03-01T21:38:25.604Z,96141.47
2019-03-01T21:40:52.902Z,96148.97
2019-03-01T21:43:20.144Z,96142.84
2019-03-01T21:45:47.770Z,96144.96
2019-03-01T21:48:14.949Z,96146.59
2019-03-01T21:50:43.505Z,96152.41
2019-03-01T21:53:10.796Z,96147.16
2019-03-01T21:55:38.054Z,96148.31
2019-03-01T21:58:07.475Z,96148.80
2019-03-01T22:00:34.950Z,96151.65
2019-03-01T22:03:02.842Z,96158.14
2019-03-01T22:05:30.033Z,96159.22
2019-03-01T22:07:57.268Z,96161.27
2019-03-01T22:10:24.332Z,96162.11
2019-03-01T22:12:52.495Z,96162.09
2019-03-01T22:15:21.464Z,96165.58
2019-03-01T22:17:50.067Z,96162.03
2019-03-01T22:20:18.258Z,96173.29
2019-03-01T22:22:46.127Z,96177.10
2019-03-01T22:25:14.562Z,96178.96
2019-03-01T22:27:41.745Z,96173.15
2019-03-01T22:30:09.372Z,96176.70
2019-03-01T22:32:37.038Z,96182.52
2019-03-01T22:35:08.519Z,96185.46
2019-03-01T22:37:33.106Z,96183.63
2019-03-01T22:40:00.641Z,96186.14
2019-03-01T22:42:29.222Z,96181.83
2019-03-01T22:44:56.417Z,96176.10
2019-03-01T22:47:24.957Z,96172.55
2019-03-01T22:49:52.517Z,96181.36
2019-03-01T22:52:20.180Z,96177.80
2019-03-01T22:54:47.378Z,96176.98
2019-03-01T22:57:14.989Z,96169.20
2019-03-01T22:59:43.597Z,96173.43
2019-03-01T23:02:11.442Z,96170.97
2019-03-01T23:04:39.208Z,96169.95
2019-03-01T23:07:06.504Z,96174.42
2019-03-01T23:09:38.097Z,96172.77
2019-03-01T23:12:08.142Z,96175.97
2019-03-01T23:14:36.543Z,96176.18
2019-03-01T23:17:03.815Z,96182.81
2019-03-01T23:19:31.663Z,96176.73
2019-03-01T23:21:58.931Z,96178.24
2019-03-01T23:24:27.187Z,96173.33
2019-03-01T23:26:56.781Z,96179.05
2019-03-01T23:29:25.807Z,96182.13
2019-03-01T23:31:52.856Z,96175.50
2019-03-01T23:34:19.896Z,96179.67
2019-03-01T23:36:47.233Z,96180.56
2019-03-01T23:39:14.897Z,96184.05
2019-03-01T23:41:43.501Z,96177.50
2019-03-01T23:44:11.973Z,96181.87
2019-03-01T23:46:39.501Z,96182.82
2019-03-01T23:49:06.779Z,96180.02
2019-03-01T23:51:33.849Z,96180.63
2019-03-01T23:54:00.895Z,96182.00
2019-03-01T23:56:29.685Z,96174.91
2019-03-01T23:58:56.948Z,96183.91
